createdAt,value
2023-09-27T00:00:34.175Z,56.93
2023-09-27T00:03:01.331Z,56.79
2023-09-27T00:05:29.075Z,57.22
2023-09-27T00:08:00.137Z,56.91
2023-09-27T00:10:28.289Z,57.36
2023-09-27T00:12:55.355Z,58.87
2023-09-27T00:15:22.577Z,59.00
2023-09-27T00:17:51.097Z,59.12
2023-09-27T00:20:19.599Z,58.76
2023-09-27T00:22:46.868Z,58.47
2023-09-27T00:25:15.430Z,58.28
2023-09-27T00:27:43.277Z,58.20
2023-09-27T00:30:15.411Z,57.37
2023-09-27T00:32:43.135Z,57.35
2023-09-27T00:35:16.115Z,57.71
2023-09-27T00:37:43.208Z,58.15
2023-09-27T00:40:11.992Z,56.92
2023-09-27T00:42:39.642Z,56.78
2023-09-27T00:45:08.485Z,56.58
2023-09-27T00:47:37.052Z,56.12
2023-09-27T00:50:05.185Z,56.23
2023-09-27T00:52:34.915Z,56.77
2023-09-27T00:55:02.160Z,56.45
2023-09-27T00:57:29.536Z,56.14
2023-09-27T00:59:57.256Z,56.32
2023-09-27T01:02:24.748Z,56.97
2023-09-27T01:04:51.999Z,56.76
2023-09-27T01:07:19.332Z,56.46
2023-09-27T01:09:48.240Z,56.68
2023-09-27T01:12:15.409Z,56.71
2023-09-27T01:14:42.920Z,56.39
2023-09-27T01:17:11.146Z,56.44
2023-09-27T01:19:39.659Z,56.63
2023-09-27T01:22:06.781Z,56.60
2023-09-27T01:24:37.801Z,56.79
2023-09-27T01:27:09.214Z,56.61
2023-09-27T01:29:36.428Z,56.50
2023-09-27T01:32:03.909Z,56.25
2023-09-27T01:34:31.236Z,56.59
2023-09-27T01:36:59.109Z,56.12
2023-09-27T01:39:26.202Z,55.63
2023-09-27T01:41:54.760Z,55.95
2023-09-27T01:44:22.067Z,56.30
2023-09-27T01:46:49.276Z,56.60
2023-09-27T01:49:16.570Z,56.57
2023-09-27T01:51:43.683Z,56.09
2023-09-27T01:54:12.016Z,56.66
2023-09-27T01:56:39.878Z,57.49
2023-09-27T01:59:08.387Z,57.44
2023-09-27T02:01:35.528Z,56.95
2023-09-27T02:04:02.821Z,57.26
2023-09-27T02:06:29.910Z,57.45
2023-09-27T02:08:57.087Z,57.53
2023-09-27T02:11:26.887Z,58.03
2023-09-27T02:13:54.489Z,58.12
2023-09-27T02:16:23.292Z,57.74
2023-09-27T02:18:50.913Z,57.75
2023-09-27T02:21:19.390Z,58.46
2023-09-27T02:23:47.098Z,57.92
2023-09-27T02:26:14.285Z,58.16
2023-09-27T02:28:44.430Z,58.06
2023-09-27T02:31:11.941Z,57.19
2023-09-27T02:33:40.512Z,57.59
2023-09-27T02:36:08.260Z,57.76
2023-09-27T02:38:37.244Z,58.14
2023-09-27T02:41:05.257Z,58.18
2023-09-27T02:43:32.707Z,57.70
2023-09-27T02:45:59.775Z,57.89
2023-09-27T02:48:27.055Z,57.67
2023-09-27T02:50:56.388Z,57.39
2023-09-27T02:53:23.566Z,57.40
2023-09-27T02:55:50.736Z,57.60
2023-09-27T02:58:17.827Z,57.91
2023-09-27T03:00:45.004Z,58.24
2023-09-27T03:03:15.049Z,57.91
2023-09-27T03:05:42.476Z,58.06
2023-09-27T03:08:11.435Z,58.71
2023-09-27T03:10:40.024Z,58.70
2023-09-27T03:13:09.383Z,59.63
2023-09-27T03:15:36.698Z,59.93
2023-09-27T03:18:04.722Z,59.35
2023-09-27T03:20:33.019Z,60.07
2023-09-27T03:23:01.175Z,59.95
2023-09-27T03:25:29.882Z,60.25
2023-09-27T03:27:56.988Z,60.76
2023-09-27T03:30:24.610Z,60.27
2023-09-27T03:32:51.845Z,60.48
2023-09-27T03:35:20.103Z,61.00
2023-09-27T03:37:48.284Z,61.60
2023-09-27T03:40:16.219Z,61.42
2023-09-27T03:42:45.703Z,61.09
2023-09-27T03:45:13.577Z,61.64
2023-09-27T03:47:40.836Z,61.79
2023-09-27T03:50:08.859Z,61.71
2023-09-27T03:52:35.945Z,61.52
2023-09-27T03:55:03.195Z,61.80
2023-09-27T03:57:30.275Z,61.87
2023-09-27T03:59:58.761Z,61.34
2023-09-27T04:02:26.602Z,61.06
2023-09-27T04:04:53.796Z,61.84
2023-09-27T04:07:21.349Z,61.17
2023-09-27T04:09:48.619Z,61.36
2023-09-27T04:12:15.672Z,60.86
2023-09-27T04:14:42.849Z,61.25
2023-09-27T04:17:11.562Z,61.51
2023-09-27T04:19:38.715Z,61.43
2023-09-27T04:22:05.835Z,61.29
2023-09-27T04:24:33.121Z,61.14
2023-09-27T04:27:00.444Z,61.41
2023-09-27T04:29:27.660Z,61.36
2023-09-27T04:31:54.990Z,61.79
2023-09-27T04:34:24.367Z,62.28
2023-09-27T04:36:54.753Z,62.18
2023-09-27T04:39:21.818Z,62.57
2023-09-27T04:41:48.881Z,62.48
2023-09-27T04:44:16.146Z,62.23
2023-09-27T04:46:43.372Z,62.60
2023-09-27T04:49:10.908Z,62.68
2023-09-27T04:51:39.667Z,63.12
2023-09-27T04:54:06.848Z,62.68
2023-09-27T04:56:34.055Z,63.35
2023-09-27T04:59:06.301Z,63.45
2023-09-27T05:01:33.510Z,63.03
2023-09-27T05:04:00.636Z,63.74
2023-09-27T05:06:27.773Z,63.15
2023-09-27T05:08:56.351Z,63.33
2023-09-27T05:11:23.497Z,63.46
2023-09-27T05:13:50.821Z,63.12
2023-09-27T05:16:17.942Z,62.95
2023-09-27T05:18:45.316Z,63.21
2023-09-27T05:21:12.400Z,63.23
2023-09-27T05:23:39.443Z,63.31
2023-09-27T05:26:07.957Z,63.30
2023-09-27T05:28:35.002Z,63.02
2023-09-27T05:31:02.157Z,63.55
2023-09-27T05:33:29.464Z,62.64
2023-09-27T05:35:56.582Z,62.77
2023-09-27T05:38:23.843Z,62.80
2023-09-27T05:40:51.157Z,62.79
2023-09-27T05:43:19.809Z,62.67
2023-09-27T05:45:46.870Z,62.51
2023-09-27T05:48:17.396Z,62.75
2023-09-27T05:50:48.102Z,61.70
2023-09-27T05:53:18.129Z,61.72
2023-09-27T05:55:45.414Z,61.47
2023-09-27T05:58:12.558Z,60.83
2023-09-27T06:00:47.669Z,59.96
2023-09-27T06:03:15.059Z,60.36
2023-09-27T06:05:42.921Z,60.09
2023-09-27T06:08:10.168Z,58.75
2023-09-27T06:10:37.326Z,59.01
2023-09-27T06:13:04.649Z,58.39
2023-09-27T06:15:34.276Z,58.93
2023-09-27T06:18:04.429Z,58.66
2023-09-27T06:20:32.160Z,57.92
2023-09-27T06:23:04.597Z,56.84
2023-09-27T06:25:31.954Z,56.77
2023-09-27T06:27:59.021Z,57.15
2023-09-27T06:30:26.110Z,56.04
2023-09-27T06:32:53.523Z,55.68
2023-09-27T06:35:22.260Z,55.44
2023-09-27T06:37:51.006Z,55.82
2023-09-27T06:40:18.785Z,54.34
2023-09-27T06:42:46.310Z,55.08
2023-09-27T06:45:14.450Z,56.07
2023-09-27T06:47:42.422Z,54.78
2023-09-27T06:50:10.963Z,53.72
2023-09-27T06:52:41.602Z,53.85
2023-09-27T06:55:12.211Z,53.37
2023-09-27T06:57:39.702Z,53.13
2023-09-27T07:00:26.138Z,52.57
2023-09-27T07:02:53.910Z,52.12
2023-09-27T07:05:25.040Z,50.99
2023-09-27T07:07:54.409Z,50.40
2023-09-27T07:10:21.891Z,51.62
2023-09-27T07:12:48.985Z,51.96
2023-09-27T07:15:16.201Z,51.35
2023-09-27T07:17:45.465Z,50.47
2023-09-27T07:20:29.243Z,50.44
2023-09-27T07:22:58.198Z,50.75
2023-09-27T07:25:25.570Z,50.21
2023-09-27T07:27:53.242Z,49.88
2023-09-27T07:30:25.088Z,48.76
2023-09-27T07:32:53.141Z,48.38
2023-09-27T07:35:20.544Z,47.88
2023-09-27T07:37:48.709Z,47.97
2023-09-27T07:40:18.504Z,47.12
2023-09-27T07:42:46.283Z,47.75
2023-09-27T07:45:17.106Z,46.95
2023-09-27T07:47:44.294Z,46.71
2023-09-27T07:50:11.503Z,46.27
2023-09-27T07:52:38.589Z,45.85
2023-09-27T07:55:09.528Z,45.18
2023-09-27T07:57:38.025Z,44.75
2023-09-27T08:00:11.671Z,44.99
2023-09-27T08:02:41.458Z,44.53
2023-09-27T08:05:13.580Z,44.43
2023-09-27T08:07:41.442Z,42.92
2023-09-27T08:10:21.414Z,43.92
2023-09-27T08:12:50.607Z,42.85
2023-09-27T08:15:19.285Z,44.79
2023-09-27T08:17:48.782Z,43.42
2023-09-27T08:20:16.565Z,44.08
2023-09-27T08:22:43.639Z,44.30
2023-09-27T08:25:18.193Z,42.95
2023-09-27T08:27:45.837Z,43.31
2023-09-27T08:30:14.834Z,41.21
2023-09-27T08:32:43.283Z,40.06
2023-09-27T08:35:11.728Z,39.84
2023-09-27T08:37:38.963Z,40.11
2023-09-27T08:40:08.784Z,38.42
2023-09-27T08:42:35.995Z,37.98
2023-09-27T08:45:04.345Z,37.35
2023-09-27T08:47:33.377Z,37.37
2023-09-27T08:50:00.540Z,36.65
2023-09-27T08:52:30.763Z,37.08
2023-09-27T08:55:01.065Z,34.97
2023-09-27T08:57:29.343Z,35.88
2023-09-27T09:00:02.381Z,35.14
2023-09-27T09:02:30.162Z,34.88
2023-09-27T09:04:59.377Z,34.45
2023-09-27T09:07:27.006Z,34.87
2023-09-27T09:09:54.018Z,34.91
2023-09-27T09:12:21.140Z,33.87
2023-09-27T09:14:55.741Z,33.80
2023-09-27T09:17:35.552Z,32.78
2023-09-27T09:20:38.049Z,33.91
2023-09-27T09:23:13.944Z,32.70
2023-09-27T09:25:47.549Z,32.88
2023-09-27T09:28:15.000Z,33.11
2023-09-27T09:30:42.488Z,32.51
2023-09-27T09:33:10.161Z,31.92
2023-09-27T09:35:38.791Z,30.39
2023-09-27T09:38:06.080Z,31.31
2023-09-27T09:40:33.294Z,30.89
2023-09-27T09:43:01.280Z,31.38
2023-09-27T09:45:30.352Z,31.83
2023-09-27T09:47:58.820Z,30.49
2023-09-27T09:50:28.334Z,31.44
2023-09-27T09:53:00.873Z,30.94
2023-09-27T09:55:48.689Z,32.14
2023-09-27T09:58:22.958Z,31.50
2023-09-27T10:00:51.208Z,32.40
2023-09-27T10:03:22.140Z,32.30
2023-09-27T10:05:51.472Z,32.10
2023-09-27T10:08:24.481Z,31.02
2023-09-27T10:10:51.597Z,31.06
2023-09-27T10:13:19.637Z,31.98
2023-09-27T10:15:46.921Z,32.84
2023-09-27T10:18:34.916Z,31.61
2023-09-27T10:21:06.332Z,33.21
2023-09-27T10:23:59.367Z,33.58
2023-09-27T10:26:38.203Z,32.84
2023-09-27T10:29:15.458Z,32.96
2023-09-27T10:32:22.545Z,33.66
2023-09-27T10:34:50.709Z,33.73
2023-09-27T10:37:19.511Z,33.09
2023-09-27T10:40:20.852Z,33.00
2023-09-27T10:42:48.289Z,33.86
2023-09-27T10:45:17.595Z,33.69
2023-09-27T10:47:45.101Z,34.53
2023-09-27T10:50:12.349Z,34.59
2023-09-27T10:52:40.789Z,34.09
2023-09-27T10:55:12.644Z,34.38
2023-09-27T10:57:42.720Z,33.78
2023-09-27T11:00:12.687Z,34.04
2023-09-27T11:02:40.295Z,34.42
2023-09-27T11:05:09.168Z,35.23
2023-09-27T11:07:44.093Z,36.14
2023-09-27T11:10:11.355Z,36.87
2023-09-27T11:12:39.025Z,36.25
2023-09-27T11:15:09.045Z,36.79
2023-09-27T11:17:36.343Z,37.03
2023-09-27T11:20:13.012Z,37.65
2023-09-27T11:22:40.235Z,37.04
2023-09-27T11:25:28.923Z,36.25
2023-09-27T11:27:56.492Z,36.84
2023-09-27T11:30:29.486Z,36.92
2023-09-27T11:32:56.972Z,36.69
2023-09-27T11:35:24.654Z,37.87
2023-09-27T11:38:08.821Z,37.56
2023-09-27T11:40:36.380Z,37.62
2023-09-27T11:43:04.232Z,37.97
2023-09-27T11:45:42.850Z,38.18
2023-09-27T11:48:11.046Z,39.40
2023-09-27T11:50:38.927Z,40.25
2023-09-27T11:53:06.425Z,40.86
2023-09-27T11:55:33.568Z,41.43
2023-09-27T11:58:01.072Z,42.07
2023-09-27T12:00:29.825Z,42.34
2023-09-27T12:02:59.218Z,41.60
2023-09-27T12:05:27.622Z,41.23
2023-09-27T12:07:56.417Z,41.84
2023-09-27T12:10:23.875Z,42.81
2023-09-27T12:12:51.018Z,41.83
2023-09-27T12:15:18.323Z,41.74
2023-09-27T12:17:45.547Z,40.85
2023-09-27T12:20:31.423Z,40.72
2023-09-27T12:23:04.265Z,41.01
2023-09-27T12:25:32.876Z,41.65
2023-09-27T12:28:00.028Z,42.56
2023-09-27T12:30:29.008Z,42.42
2023-09-27T12:32:56.925Z,42.68
2023-09-27T12:35:25.834Z,42.34
2023-09-27T12:37:53.001Z,43.04
2023-09-27T12:40:20.159Z,43.10
2023-09-27T12:42:47.367Z,43.35
2023-09-27T12:45:14.830Z,43.59
2023-09-27T12:47:42.917Z,44.14
2023-09-27T12:50:10.479Z,43.79
2023-09-27T12:52:39.168Z,43.82
2023-09-27T12:55:06.665Z,43.84
2023-09-27T12:57:33.988Z,43.75
2023-09-27T13:00:01.394Z,44.22
2023-09-27T13:02:28.788Z,43.79
2023-09-27T13:04:55.942Z,43.99
2023-09-27T13:07:23.346Z,43.71
2023-09-27T13:09:51.890Z,43.98
2023-09-27T13:12:19.045Z,44.65
2023-09-27T13:17:13.507Z,44.68
2023-09-27T13:19:40.662Z,44.59
2023-09-27T13:22:07.970Z,44.92
2023-09-27T13:24:35.178Z,45.12
2023-09-27T13:27:03.689Z,44.93
2023-09-27T13:29:31.589Z,44.93
2023-09-27T13:31:58.826Z,45.34
2023-09-27T13:34:25.833Z,45.80
2023-09-27T13:36:53.169Z,46.44
2023-09-27T13:39:23.354Z,45.31
2023-09-27T13:41:50.461Z,45.51
2023-09-27T13:44:19.082Z,44.41
2023-09-27T13:46:46.433Z,44.70
2023-09-27T13:49:13.723Z,44.87
2023-09-27T13:51:41.603Z,45.34
2023-09-27T13:54:09.386Z,45.23
2023-09-27T13:56:38.110Z,46.13
2023-09-27T13:59:05.781Z,46.24
2023-09-27T14:01:34.465Z,46.37
2023-09-27T14:04:02.601Z,46.44
2023-09-27T14:06:29.945Z,46.54
2023-09-27T14:08:57.889Z,46.27
2023-09-27T14:11:25.194Z,46.16
2023-09-27T14:13:53.555Z,46.54
2023-09-27T14:16:21.589Z,46.80
2023-09-27T14:18:50.268Z,47.48
2023-09-27T14:21:17.426Z,47.40
2023-09-27T14:23:45.570Z,46.61
2023-09-27T14:26:13.100Z,46.81
2023-09-27T14:28:40.440Z,47.21
2023-09-27T14:31:07.748Z,47.40
2023-09-27T14:33:36.064Z,47.02
2023-09-27T14:36:05.918Z,46.96
2023-09-27T14:38:35.295Z,47.37
2023-09-27T14:41:07.861Z,46.85
2023-09-27T14:43:36.557Z,46.88
2023-09-27T14:46:03.652Z,47.23
2023-09-27T14:48:30.717Z,47.69
2023-09-27T14:50:57.906Z,47.53
2023-09-27T14:53:26.368Z,47.18
2023-09-27T14:55:53.676Z,47.38
2023-09-27T14:58:21.845Z,47.50
2023-09-27T15:00:49.213Z,46.97
2023-09-27T15:03:16.470Z,47.44
2023-09-27T15:05:44.837Z,47.59
2023-09-27T15:08:12.053Z,47.30
2023-09-27T15:10:41.744Z,47.57
2023-09-27T15:13:09.371Z,47.81
2023-09-27T15:15:37.107Z,48.48
2023-09-27T15:18:05.166Z,48.66
2023-09-27T15:20:33.489Z,48.52
2023-09-27T15:23:00.738Z,48.26
2023-09-27T15:25:27.887Z,48.71
2023-09-27T15:27:57.128Z,48.74
2023-09-27T15:30:24.365Z,49.08
2023-09-27T15:32:51.598Z,49.63
2023-09-27T15:35:18.811Z,49.73
2023-09-27T15:37:52.699Z,49.91
2023-09-27T15:40:20.453Z,48.71
2023-09-27T15:42:50.876Z,50.37
2023-09-27T15:45:21.515Z,50.41
2023-09-27T15:47:49.710Z,49.34
2023-09-27T15:50:16.847Z,49.52
2023-09-27T15:52:43.929Z,48.89
2023-09-27T15:55:11.197Z,48.62
2023-09-27T15:57:41.247Z,48.69
2023-09-27T16:00:09.834Z,48.73
2023-09-27T16:02:41.196Z,48.86
2023-09-27T16:05:14.320Z,48.84
2023-09-27T16:07:42.087Z,48.99
2023-09-27T16:10:10.200Z,48.66
2023-09-27T16:12:38.075Z,49.71
2023-09-27T16:15:07.214Z,49.15
2023-09-27T16:17:36.437Z,48.87
2023-09-27T16:20:06.370Z,49.40
2023-09-27T16:22:33.530Z,49.11
2023-09-27T16:25:04.798Z,48.74
2023-09-27T16:27:32.600Z,49.06
2023-09-27T16:29:59.787Z,48.78
2023-09-27T16:32:27.452Z,49.09
2023-09-27T16:34:54.898Z,48.62
2023-09-27T16:37:23.390Z,48.82
2023-09-27T16:39:50.793Z,48.71
2023-09-27T16:42:17.960Z,48.68
2023-09-27T16:44:45.147Z,48.94
2023-09-27T16:47:12.196Z,48.89
2023-09-27T16:49:39.429Z,49.16
2023-09-27T16:52:06.676Z,48.99
2023-09-27T16:54:35.146Z,49.56
2023-09-27T16:57:03.770Z,49.37
2023-09-27T16:59:30.940Z,49.03
2023-09-27T17:01:58.458Z,49.37
2023-09-27T17:04:25.738Z,49.38
2023-09-27T17:06:52.836Z,49.51
2023-09-27T17:09:20.437Z,49.20
2023-09-27T17:11:48.907Z,49.79
2023-09-27T17:14:16.125Z,49.49
2023-09-27T17:16:43.254Z,49.69
2023-09-27T17:19:10.706Z,48.95
2023-09-27T17:21:39.577Z,49.48
2023-09-27T17:24:07.154Z,49.74
2023-09-27T17:26:34.324Z,49.73
2023-09-27T17:29:02.863Z,50.01
2023-09-27T17:31:30.073Z,49.92
2023-09-27T17:33:57.776Z,50.68
2023-09-27T17:36:25.084Z,49.92
2023-09-27T17:38:52.167Z,50.75
2023-09-27T17:41:19.323Z,51.59
2023-09-27T17:43:46.954Z,51.57
2023-09-27T17:46:22.156Z,52.09
2023-09-27T17:48:49.532Z,52.18
2023-09-27T17:51:18.017Z,52.31
2023-09-27T17:53:45.263Z,50.55
2023-09-27T17:56:12.429Z,51.39
2023-09-27T17:58:39.529Z,51.64
2023-09-27T18:01:06.756Z,52.33
2023-09-27T18:03:35.403Z,51.78
2023-09-27T18:06:06.535Z,52.04
2023-09-27T18:08:34.082Z,51.23
2023-09-27T18:11:07.760Z,52.41
2023-09-27T18:13:34.836Z,52.38
2023-09-27T18:16:01.919Z,52.23
2023-09-27T18:18:29.069Z,51.94
2023-09-27T18:20:57.648Z,51.38
2023-09-27T18:23:24.767Z,52.09
2023-09-27T18:25:51.945Z,51.72
2023-09-27T18:28:19.088Z,51.58
2023-09-27T18:30:46.726Z,51.94
2023-09-27T18:33:13.868Z,52.63
2023-09-27T18:35:41.751Z,52.22
2023-09-27T18:38:10.007Z,52.46
2023-09-27T18:40:38.580Z,52.14
2023-09-27T18:43:05.866Z,51.92
2023-09-27T18:45:33.213Z,51.53
2023-09-27T18:48:00.334Z,51.47
2023-09-27T18:50:27.992Z,51.37
2023-09-27T18:52:55.042Z,51.28
2023-09-27T18:55:23.494Z,50.22
2023-09-27T18:57:50.457Z,49.79
2023-09-27T19:00:17.834Z,49.83
2023-09-27T19:02:47.825Z,50.04
2023-09-27T19:05:15.312Z,49.98
2023-09-27T19:07:42.233Z,50.39
2023-09-27T19:10:12.406Z,50.90
2023-09-27T19:12:40.932Z,50.43
2023-09-27T19:15:08.794Z,50.85
2023-09-27T19:17:35.597Z,51.55
2023-09-27T19:20:06.557Z,51.31
2023-09-27T19:22:33.732Z,51.48
2023-09-27T19:25:00.798Z,50.17
2023-09-27T19:27:27.807Z,50.90
2023-09-27T19:29:56.434Z,50.76
2023-09-27T19:32:24.775Z,51.30
2023-09-27T19:34:51.905Z,50.86
2023-09-27T19:37:18.909Z,51.15
2023-09-27T19:39:46.630Z,51.77
2023-09-27T19:42:15.108Z,51.97
2023-09-27T19:44:42.457Z,52.00
2023-09-27T19:47:11.169Z,52.31
2023-09-27T19:49:41.367Z,52.52
2023-09-27T19:52:08.535Z,52.45
2023-09-27T19:54:36.694Z,52.69
2023-09-27T19:57:03.919Z,51.83
2023-09-27T19:59:31.954Z,52.05
2023-09-27T20:02:00.458Z,54.03
2023-09-27T20:04:28.851Z,52.06
2023-09-27T20:06:55.897Z,52.53
2023-09-27T20:09:23.255Z,51.65
2023-09-27T20:11:50.605Z,51.55
2023-09-27T20:14:18.299Z,52.16
2023-09-27T20:16:45.521Z,50.54
2023-09-27T20:19:12.563Z,50.44
2023-09-27T20:21:40.915Z,50.67
2023-09-27T20:24:08.334Z,50.62
2023-09-27T20:26:36.093Z,50.09
2023-09-27T20:29:03.144Z,50.79
2023-09-27T20:31:30.441Z,49.48
2023-09-27T20:33:57.474Z,49.71
2023-09-27T20:36:24.621Z,50.09
2023-09-27T20:38:53.187Z,50.06
2023-09-27T20:41:21.282Z,49.71
2023-09-27T20:43:48.503Z,49.42
2023-09-27T20:46:16.070Z,49.46
2023-09-27T20:48:43.224Z,50.19
2023-09-27T20:51:10.905Z,49.23
2023-09-27T20:53:38.710Z,48.89
2023-09-27T20:56:10.366Z,48.17
2023-09-27T20:58:37.958Z,48.31
2023-09-27T21:01:08.375Z,48.23
2023-09-27T21:03:36.707Z,48.02
2023-09-27T21:06:05.167Z,48.58
2023-09-27T21:08:33.055Z,48.02
2023-09-27T21:11:00.920Z,47.98
2023-09-27T21:13:29.294Z,48.20
2023-09-27T21:15:56.428Z,47.65
2023-09-27T21:18:23.599Z,47.92
2023-09-27T21:20:50.754Z,47.13
2023-09-27T21:23:17.669Z,47.23
2023-09-27T21:25:44.644Z,47.62
2023-09-27T21:28:11.584Z,47.76
2023-09-27T21:30:40.001Z,47.44
2023-09-27T21:33:07.062Z,47.07
2023-09-27T21:35:34.108Z,47.35
2023-09-27T21:38:01.452Z,47.58
2023-09-27T21:40:28.889Z,47.10
2023-09-27T21:42:55.887Z,48.23
2023-09-27T21:45:23.000Z,47.47
2023-09-27T21:47:51.329Z,47.03
2023-09-27T21:50:18.425Z,48.53
2023-09-27T21:52:46.396Z,48.07
2023-09-27T21:55:13.617Z,48.37
2023-09-27T21:57:40.868Z,47.69
2023-09-27T22:00:20.938Z,47.71
2023-09-27T22:02:48.200Z,47.27
2023-09-27T22:05:16.696Z,48.01
2023-09-27T22:07:45.527Z,48.45
2023-09-27T22:10:12.545Z,49.03
2023-09-27T22:12:40.213Z,50.89
2023-09-27T22:15:10.793Z,49.34
2023-09-27T22:17:39.134Z,48.95
2023-09-27T22:20:13.980Z,49.29
2023-09-27T22:22:42.503Z,49.89
2023-09-27T22:25:13.730Z,50.49
2023-09-27T22:27:41.068Z,50.51
2023-09-27T22:30:13.927Z,51.00
2023-09-27T22:32:41.979Z,52.21
2023-09-27T22:35:28.465Z,52.20
2023-09-27T22:37:57.348Z,52.77
2023-09-27T22:40:24.903Z,52.85
2023-09-27T22:42:57.147Z,52.71
2023-09-27T22:45:31.713Z,53.82
2023-09-27T22:48:02.722Z,54.89
2023-09-27T22:50:30.142Z,54.79
2023-09-27T22:52:58.933Z,54.19
2023-09-27T22:55:29.107Z,54.38
2023-09-27T22:57:56.476Z,55.82
2023-09-27T23:00:26.475Z,56.09
2023-09-27T23:02:56.250Z,56.48
2023-09-27T23:05:40.573Z,56.70
2023-09-27T23:08:13.465Z,56.92
2023-09-27T23:10:41.276Z,57.20
2023-09-27T23:13:35.945Z,58.25
2023-09-27T23:16:22.753Z,58.82
2023-09-27T23:18:50.725Z,59.89
2023-09-27T23:21:24.458Z,60.33
2023-09-27T23:24:11.742Z,60.56
2023-09-27T23:27:15.436Z,60.47
2023-09-27T23:29:42.612Z,59.91
2023-09-27T23:32:31.028Z,60.33
2023-09-27T23:35:00.410Z,60.05
2023-09-27T23:37:34.497Z,59.85
2023-09-27T23:40:10.939Z,60.25
2023-09-27T23:42:44.112Z,59.89
2023-09-27T23:45:11.812Z,60.13
2023-09-27T23:47:45.245Z,60.67
2023-09-27T23:50:16.233Z,60.72
2023-09-27T23:52:45.620Z,60.96
2023-09-27T23:55:14.958Z,60.30
2023-09-27T23:57:42.352Z,61.13
